Butler, TN

2:03 PM EDT on October 20, 2014 (GMT -0400)
Tri-Cities Regional Tennessee / Virginia | Change Station
CLOSE
Current Station
Airport
Location: Tri-Cities,
Elevation: 1519 ft
Nearby Weather Stations

Elev 1519 ft 36.48 °N, 82.40 °W | Updated 10 minutes ago

Partly Cloudy
Partly Cloudy
64 °F
Feels Like 64 °F
N
15
Wind Variable Wind from SW

Today
High -- | Low -- °F
--% Chance of Precip.
Yesterday
High -- | Low -- °F
Precip. -- in
7:40 AM 6:46 PM
Waning Crescent, 10% visible
Pressure 30.00 in
Visibility 10.0 miles
Clouds Scattered Clouds 4100 ft
Scattered Clouds 25000 ft
Dew Point 47 °F
Humidity 54%
Rainfall 0.00 in
Snow Depth Not available.
UV 5 out of 12
Pollen 1.40 out of 12
Air Quality Not available.
Flu Activity Sporadic
METAR KTRI 201753Z 23013KT 10SM SCT041 SCT250 18/08 A3003 RMK AO2 SLP158 T01780083 10178 20044 58029

More Conditions Fewer Conditions

Pressure 30.00 in
Visibility 10.0 miles
Clouds Scattered Clouds 4100 ft
Scattered Clouds 25000 ft
Dew Point 47 °F
Humidity 54%
Rainfall 0.00 in
Snow Depth Not available.
UV 5 out of 12
Pollen 1.40 out of 12
Air Quality Not available.
Flu Activity Sporadic
METAR KTRI 201753Z 23013KT 10SM SCT041 SCT250 18/08 A3003 RMK AO2 SLP158 T01780083 10178 20044 58029

More Conditions Fewer Conditions

10-Day Weather Forecast

Almanac

Astronomy

Oct. 20, 2014 Rise Set
Actual Time 7:40 AM EDT 6:46 PM EDT
Civil Twilight 7:14 AM EDT 7:12 PM EDT
Nautical Twilight 6:44 AM EDT 7:42 PM EDT
Astronomical Twilight 6:14 AM EDT 8:12 PM EDT
Moon 4:32 AM EDT 5:03 PM EDT
Length of Visible Light 11h 57m
Length of Day
11h 05m
Waning Crescent, 10% of the Moon is Illuminated
Today
Waning Crescent
Oct 23
New
Oct 30
First Quarter
Nov 6
Full
Nov 14
Last Quarter

Today's Extremes

State Highs State Lows

Community

WunderPhotos

Upload Photos

1,763,455 photos uploaded!

Nearby

Snow Depth

Station Depth Elevation
No new snow has been reported.

Earthquake Activity

City Distance Mag. Time & Date
No recent earthquake activity has been reported nearby.
Minimum magnitude displayed is 2.5.

Coastal Water Temperatures

Place Temperature
No Stations Reporting

Nearby Weather Stations